<?xml version="1.0" encoding="UTF-8" standalone="no" ?>
<gpx xmlns="http://www.topografix.com/GPX/1/1" xmlns:xsi="http://www.w3.org/2001/XMLSchema-instance" xsi:schemaLocation="http://www.topografix.com/GPX/1/1 http://www.topografix.com/GPX/1/1/gpx.xsd" version="1.1" creator="VisuGPX - https://www.visugpx.com">
  <metadata>
    <name>Le Grand Gageai - COLLOBRIERES - 83</name>
    <desc><![CDATA[Départ de la piste du Pont de Fer en bordure de la D14. Ascension du Grand Gageai avec magnifique vue sur la presqu\'île de Giens et les îles.Descente difficile en direction de la retenue de Camp Bourjas. Retour par la piste du Grand Bourjas.]]></desc>
  </metadata>
  <trk>
    <name><![CDATA[04-DEC-11 15:49:23]]></name>
    <trkseg>
      <trkpt lat="43.2353" lon="6.22323">
        <ele>99.63</ele>
        <time>2011-12-04T08:04:20Z</time>
      </trkpt>
      <trkpt lat="43.23537" lon="6.22288">
        <ele>100.11</ele>
        <time>2011-12-04T08:04:49Z</time>
      </trkpt>
      <trkpt lat="43.23549" lon="6.22251">
        <ele>105.88</ele>
        <time>2011-12-04T08:05:12Z</time>
      </trkpt>
      <trkpt lat="43.23559" lon="6.22202">
        <ele>106.36</ele>
        <time>2011-12-04T08:05:47Z</time>
      </trkpt>
      <trkpt lat="43.23567" lon="6.2217">
        <ele>105.4</ele>
        <time>2011-12-04T08:06:06Z</time>
      </trkpt>
      <trkpt lat="43.23575" lon="6.22143">
        <ele>104.92</ele>
        <time>2011-12-04T08:06:25Z</time>
      </trkpt>
      <trkpt lat="43.23582" lon="6.22117">
        <ele>103.96</ele>
        <time>2011-12-04T08:06:46Z</time>
      </trkpt>
      <trkpt lat="43.23591" lon="6.22092">
        <ele>104.44</ele>
        <time>2011-12-04T08:07:04Z</time>
      </trkpt>
      <trkpt lat="43.23602" lon="6.22068">
        <ele>103.48</ele>
        <time>2011-12-04T08:07:23Z</time>
      </trkpt>
      <trkpt lat="43.23614" lon="6.22043">
        <ele>102.52</ele>
        <time>2011-12-04T08:07:43Z</time>
      </trkpt>
      <trkpt lat="43.23625" lon="6.2202">
        <ele>102.04</ele>
        <time>2011-12-04T08:08:01Z</time>
      </trkpt>
      <trkpt lat="43.23636" lon="6.21995">
        <ele>102.52</ele>
        <time>2011-12-04T08:08:21Z</time>
      </trkpt>
      <trkpt lat="43.23644" lon="6.21966">
        <ele>101.08</ele>
        <time>2011-12-04T08:08:39Z</time>
      </trkpt>
      <trkpt lat="43.23649" lon="6.21939">
        <ele>100.6</ele>
        <time>2011-12-04T08:08:57Z</time>
      </trkpt>
      <trkpt lat="43.2365" lon="6.21909">
        <ele>100.11</ele>
        <time>2011-12-04T08:09:14Z</time>
      </trkpt>
      <trkpt lat="43.23649" lon="6.21878">
        <ele>99.15</ele>
        <time>2011-12-04T08:09:33Z</time>
      </trkpt>
      <trkpt lat="43.23645" lon="6.21847">
        <ele>99.63</ele>
        <time>2011-12-04T08:09:53Z</time>
      </trkpt>
      <trkpt lat="43.23633" lon="6.21819">
        <ele>98.67</ele>
        <time>2011-12-04T08:10:14Z</time>
      </trkpt>
      <trkpt lat="43.23624" lon="6.21794">
        <ele>98.19</ele>
        <time>2011-12-04T08:10:31Z</time>
      </trkpt>
      <trkpt lat="43.23615" lon="6.21785">
        <ele>98.67</ele>
        <time>2011-12-04T08:10:51Z</time>
      </trkpt>
      <trkpt lat="43.23608" lon="6.21803">
        <ele>99.63</ele>
        <time>2011-12-04T08:11:13Z</time>
      </trkpt>
      <trkpt lat="43.23588" lon="6.21796">
        <ele>102.04</ele>
        <time>2011-12-04T08:11:53Z</time>
      </trkpt>
      <trkpt lat="43.23566" lon="6.21796">
        <ele>103.96</ele>
        <time>2011-12-04T08:12:18Z</time>
      </trkpt>
      <trkpt lat="43.23549" lon="6.21793">
        <ele>105.4</ele>
        <time>2011-12-04T08:12:40Z</time>
      </trkpt>
      <trkpt lat="43.23534" lon="6.21792">
        <ele>107.32</ele>
        <time>2011-12-04T08:13:08Z</time>
      </trkpt>
      <trkpt lat="43.23514" lon="6.21788">
        <ele>108.29</ele>
        <time>2011-12-04T08:13:29Z</time>
      </trkpt>
      <trkpt lat="43.23508" lon="6.21816">
        <ele>111.65</ele>
        <time>2011-12-04T08:13:58Z</time>
      </trkpt>
      <trkpt lat="43.23519" lon="6.21838">
        <ele>114.05</ele>
        <time>2011-12-04T08:14:19Z</time>
      </trkpt>
      <trkpt lat="43.2352" lon="6.21862">
        <ele>116.94</ele>
        <time>2011-12-04T08:14:43Z</time>
      </trkpt>
      <trkpt lat="43.23501" lon="6.21872">
        <ele>120.3</ele>
        <time>2011-12-04T08:15:14Z</time>
      </trkpt>
      <trkpt lat="43.23478" lon="6.21879">
        <ele>125.11</ele>
        <time>2011-12-04T08:15:47Z</time>
      </trkpt>
      <trkpt lat="43.23462" lon="6.21886">
        <ele>128.95</ele>
        <time>2011-12-04T08:16:16Z</time>
      </trkpt>
      <trkpt lat="43.23446" lon="6.219">
        <ele>131.36</ele>
        <time>2011-12-04T08:16:43Z</time>
      </trkpt>
      <trkpt lat="43.23435" lon="6.21923">
        <ele>133.76</ele>
        <time>2011-12-04T08:17:12Z</time>
      </trkpt>
      <trkpt lat="43.23433" lon="6.21954">
        <ele>138.57</ele>
        <time>2011-12-04T08:17:43Z</time>
      </trkpt>
      <trkpt lat="43.23424" lon="6.21978">
        <ele>144.34</ele>
        <time>2011-12-04T08:18:27Z</time>
      </trkpt>
      <trkpt lat="43.23412" lon="6.22003">
        <ele>149.62</ele>
        <time>2011-12-04T08:19:03Z</time>
      </trkpt>
      <trkpt lat="43.23395" lon="6.22024">
        <ele>155.39</ele>
        <time>2011-12-04T08:19:43Z</time>
      </trkpt>
      <trkpt lat="43.23376" lon="6.22037">
        <ele>158.75</ele>
        <time>2011-12-04T08:20:21Z</time>
      </trkpt>
      <trkpt lat="43.23358" lon="6.22046">
        <ele>163.56</ele>
        <time>2011-12-04T08:21:01Z</time>
      </trkpt>
      <trkpt lat="43.23339" lon="6.22059">
        <ele>168.37</ele>
        <time>2011-12-04T08:21:34Z</time>
      </trkpt>
      <trkpt lat="43.23317" lon="6.22068">
        <ele>173.17</ele>
        <time>2011-12-04T08:22:14Z</time>
      </trkpt>
      <trkpt lat="43.23296" lon="6.22073">
        <ele>177.02</ele>
        <time>2011-12-04T08:22:58Z</time>
      </trkpt>
      <trkpt lat="43.23277" lon="6.22073">
        <ele>179.42</ele>
        <time>2011-12-04T08:23:24Z</time>
      </trkpt>
      <trkpt lat="43.23262" lon="6.22065">
        <ele>179.9</ele>
        <time>2011-12-04T08:27:01Z</time>
      </trkpt>
      <trkpt lat="43.23241" lon="6.22063">
        <ele>180.87</ele>
        <time>2011-12-04T08:27:27Z</time>
      </trkpt>
      <trkpt lat="43.23221" lon="6.2206">
        <ele>183.27</ele>
        <time>2011-12-04T08:27:51Z</time>
      </trkpt>
      <trkpt lat="43.23204" lon="6.22055">
        <ele>185.19</ele>
        <time>2011-12-04T08:28:25Z</time>
      </trkpt>
      <trkpt lat="43.23184" lon="6.22051">
        <ele>188.08</ele>
        <time>2011-12-04T08:28:58Z</time>
      </trkpt>
      <trkpt lat="43.23168" lon="6.22058">
        <ele>191.44</ele>
        <time>2011-12-04T08:29:24Z</time>
      </trkpt>
      <trkpt lat="43.23152" lon="6.2207">
        <ele>194.8</ele>
        <time>2011-12-04T08:29:50Z</time>
      </trkpt>
      <trkpt lat="43.23132" lon="6.22086">
        <ele>196.73</ele>
        <time>2011-12-04T08:30:17Z</time>
      </trkpt>
      <trkpt lat="43.2311" lon="6.22099">
        <ele>199.13</ele>
        <time>2011-12-04T08:30:49Z</time>
      </trkpt>
      <trkpt lat="43.23089" lon="6.22102">
        <ele>200.57</ele>
        <time>2011-12-04T08:31:12Z</time>
      </trkpt>
      <trkpt lat="43.23071" lon="6.22117">
        <ele>199.61</ele>
        <time>2011-12-04T08:31:36Z</time>
      </trkpt>
      <trkpt lat="43.23058" lon="6.22141">
        <ele>200.09</ele>
        <time>2011-12-04T08:31:59Z</time>
      </trkpt>
      <trkpt lat="43.23045" lon="6.22162">
        <ele>201.53</ele>
        <time>2011-12-04T08:32:25Z</time>
      </trkpt>
      <trkpt lat="43.2303" lon="6.22182">
        <ele>202.49</ele>
        <time>2011-12-04T08:32:55Z</time>
      </trkpt>
      <trkpt lat="43.23013" lon="6.22196">
        <ele>202.49</ele>
        <time>2011-12-04T08:33:27Z</time>
      </trkpt>
      <trkpt lat="43.22991" lon="6.22196">
        <ele>202.49</ele>
        <time>2011-12-04T08:33:50Z</time>
      </trkpt>
      <trkpt lat="43.22971" lon="6.22199">
        <ele>202.01</ele>
        <time>2011-12-04T08:34:14Z</time>
      </trkpt>
      <trkpt lat="43.22951" lon="6.22211">
        <ele>202.98</ele>
        <time>2011-12-04T08:34:38Z</time>
      </trkpt>
      <trkpt lat="43.22937" lon="6.22223">
        <ele>202.98</ele>
        <time>2011-12-04T08:35:41Z</time>
      </trkpt>
      <trkpt lat="43.22923" lon="6.22246">
        <ele>205.38</ele>
        <time>2011-12-04T08:36:09Z</time>
      </trkpt>
      <trkpt lat="43.22916" lon="6.22277">
        <ele>207.78</ele>
        <time>2011-12-04T08:36:38Z</time>
      </trkpt>
      <trkpt lat="43.2291" lon="6.22307">
        <ele>209.22</ele>
        <time>2011-12-04T08:37:05Z</time>
      </trkpt>
      <trkpt lat="43.22907" lon="6.2234">
        <ele>211.15</ele>
        <time>2011-12-04T08:37:33Z</time>
      </trkpt>
      <trkpt lat="43.22906" lon="6.22371">
        <ele>213.07</ele>
        <time>2011-12-04T08:37:58Z</time>
      </trkpt>
      <trkpt lat="43.22899" lon="6.22404">
        <ele>214.51</ele>
        <time>2011-12-04T08:38:26Z</time>
      </trkpt>
      <trkpt lat="43.22898" lon="6.22433">
        <ele>216.43</ele>
        <time>2011-12-04T08:39:02Z</time>
      </trkpt>
      <trkpt lat="43.22901" lon="6.22461">
        <ele>218.84</ele>
        <time>2011-12-04T08:39:37Z</time>
      </trkpt>
      <trkpt lat="43.229" lon="6.22495">
        <ele>221.24</ele>
        <time>2011-12-04T08:40:13Z</time>
      </trkpt>
      <trkpt lat="43.22888" lon="6.22525">
        <ele>222.68</ele>
        <time>2011-12-04T08:40:39Z</time>
      </trkpt>
      <trkpt lat="43.22876" lon="6.22556">
        <ele>223.16</ele>
        <time>2011-12-04T08:41:13Z</time>
      </trkpt>
      <trkpt lat="43.22872" lon="6.22584">
        <ele>224.61</ele>
        <time>2011-12-04T08:41:53Z</time>
      </trkpt>
      <trkpt lat="43.22873" lon="6.22614">
        <ele>225.09</ele>
        <time>2011-12-04T08:42:29Z</time>
      </trkpt>
      <trkpt lat="43.22877" lon="6.22645">
        <ele>225.57</ele>
        <time>2011-12-04T08:43:05Z</time>
      </trkpt>
      <trkpt lat="43.2288" lon="6.22675">
        <ele>226.53</ele>
        <time>2011-12-04T08:43:35Z</time>
      </trkpt>
      <trkpt lat="43.22883" lon="6.22702">
        <ele>226.05</ele>
        <time>2011-12-04T08:44:07Z</time>
      </trkpt>
      <trkpt lat="43.22872" lon="6.22726">
        <ele>226.05</ele>
        <time>2011-12-04T08:44:31Z</time>
      </trkpt>
      <trkpt lat="43.22858" lon="6.2275">
        <ele>226.53</ele>
        <time>2011-12-04T08:44:49Z</time>
      </trkpt>
      <trkpt lat="43.22847" lon="6.22771">
        <ele>229.41</ele>
        <time>2011-12-04T08:45:04Z</time>
      </trkpt>
      <trkpt lat="43.2283" lon="6.22791">
        <ele>231.81</ele>
        <time>2011-12-04T08:45:43Z</time>
      </trkpt>
      <trkpt lat="43.22812" lon="6.22808">
        <ele>233.26</ele>
        <time>2011-12-04T08:46:02Z</time>
      </trkpt>
      <trkpt lat="43.22799" lon="6.22829">
        <ele>235.18</ele>
        <time>2011-12-04T08:47:54Z</time>
      </trkpt>
      <trkpt lat="43.22787" lon="6.22859">
        <ele>237.58</ele>
        <time>2011-12-04T08:48:16Z</time>
      </trkpt>
      <trkpt lat="43.22773" lon="6.2288">
        <ele>240.95</ele>
        <time>2011-12-04T08:48:37Z</time>
      </trkpt>
      <trkpt lat="43.22763" lon="6.22899">
        <ele>242.87</ele>
        <time>2011-12-04T08:49:31Z</time>
      </trkpt>
      <trkpt lat="43.22748" lon="6.22918">
        <ele>245.27</ele>
        <time>2011-12-04T08:49:53Z</time>
      </trkpt>
      <trkpt lat="43.2273" lon="6.22934">
        <ele>246.72</ele>
        <time>2011-12-04T08:50:12Z</time>
      </trkpt>
      <trkpt lat="43.22712" lon="6.22952">
        <ele>249.6</ele>
        <time>2011-12-04T08:50:33Z</time>
      </trkpt>
      <trkpt lat="43.22695" lon="6.22961">
        <ele>251.04</ele>
        <time>2011-12-04T08:51:12Z</time>
      </trkpt>
      <trkpt lat="43.22676" lon="6.22962">
        <ele>253.44</ele>
        <time>2011-12-04T08:51:33Z</time>
      </trkpt>
      <trkpt lat="43.2266" lon="6.22978">
        <ele>253.93</ele>
        <time>2011-12-04T08:51:55Z</time>
      </trkpt>
      <trkpt lat="43.22641" lon="6.22994">
        <ele>254.41</ele>
        <time>2011-12-04T08:52:18Z</time>
      </trkpt>
      <trkpt lat="43.22624" lon="6.23006">
        <ele>257.29</ele>
        <time>2011-12-04T08:53:19Z</time>
      </trkpt>
      <trkpt lat="43.22604" lon="6.23014">
        <ele>260.17</ele>
        <time>2011-12-04T08:53:49Z</time>
      </trkpt>
      <trkpt lat="43.22583" lon="6.2302">
        <ele>262.58</ele>
        <time>2011-12-04T08:54:16Z</time>
      </trkpt>
      <trkpt lat="43.22562" lon="6.23029">
        <ele>263.06</ele>
        <time>2011-12-04T08:54:38Z</time>
      </trkpt>
      <trkpt lat="43.22546" lon="6.23045">
        <ele>264.5</ele>
        <time>2011-12-04T08:55:01Z</time>
      </trkpt>
      <trkpt lat="43.22532" lon="6.2306">
        <ele>265.46</ele>
        <time>2011-12-04T08:55:27Z</time>
      </trkpt>
      <trkpt lat="43.2252" lon="6.23092">
        <ele>267.38</ele>
        <time>2011-12-04T08:55:55Z</time>
      </trkpt>
      <trkpt lat="43.22507" lon="6.23119">
        <ele>269.31</ele>
        <time>2011-12-04T08:56:20Z</time>
      </trkpt>
      <trkpt lat="43.22487" lon="6.23127">
        <ele>269.79</ele>
        <time>2011-12-04T08:56:44Z</time>
      </trkpt>
      <trkpt lat="43.22465" lon="6.23119">
        <ele>269.31</ele>
        <time>2011-12-04T08:57:07Z</time>
      </trkpt>
      <trkpt lat="43.2244" lon="6.23116">
        <ele>269.79</ele>
        <time>2011-12-04T08:57:34Z</time>
      </trkpt>
      <trkpt lat="43.22415" lon="6.23113">
        <ele>270.27</ele>
        <time>2011-12-04T08:58:03Z</time>
      </trkpt>
      <trkpt lat="43.22394" lon="6.23127">
        <ele>271.23</ele>
        <time>2011-12-04T08:58:32Z</time>
      </trkpt>
      <trkpt lat="43.22378" lon="6.23148">
        <ele>270.75</ele>
        <time>2011-12-04T08:59:04Z</time>
      </trkpt>
      <trkpt lat="43.22363" lon="6.23172">
        <ele>270.75</ele>
        <time>2011-12-04T08:59:29Z</time>
      </trkpt>
      <trkpt lat="43.22344" lon="6.23189">
        <ele>270.75</ele>
        <time>2011-12-04T08:59:51Z</time>
      </trkpt>
      <trkpt lat="43.22326" lon="6.232">
        <ele>270.75</ele>
        <time>2011-12-04T09:00:14Z</time>
      </trkpt>
      <trkpt lat="43.2231" lon="6.23208">
        <ele>272.67</ele>
        <time>2011-12-04T09:00:36Z</time>
      </trkpt>
      <trkpt lat="43.2229" lon="6.23226">
        <ele>272.67</ele>
        <time>2011-12-04T09:00:59Z</time>
      </trkpt>
      <trkpt lat="43.22274" lon="6.23243">
        <ele>272.67</ele>
        <time>2011-12-04T09:01:29Z</time>
      </trkpt>
      <trkpt lat="43.22254" lon="6.23251">
        <ele>271.71</ele>
        <time>2011-12-04T09:01:54Z</time>
      </trkpt>
      <trkpt lat="43.22234" lon="6.23256">
        <ele>270.75</ele>
        <time>2011-12-04T09:02:17Z</time>
      </trkpt>
      <trkpt lat="43.22224" lon="6.23255">
        <ele>270.75</ele>
        <time>2011-12-04T09:03:50Z</time>
      </trkpt>
      <trkpt lat="43.22223" lon="6.2327">
        <ele>270.75</ele>
        <time>2011-12-04T09:04:55Z</time>
      </trkpt>
      <trkpt lat="43.2222" lon="6.23263">
        <ele>272.19</ele>
        <time>2011-12-04T09:06:12Z</time>
      </trkpt>
      <trkpt lat="43.22212" lon="6.23264">
        <ele>274.59</ele>
        <time>2011-12-04T09:07:46Z</time>
      </trkpt>
      <trkpt lat="43.22185" lon="6.23281">
        <ele>276.04</ele>
        <time>2011-12-04T09:08:13Z</time>
      </trkpt>
      <trkpt lat="43.22164" lon="6.23299">
        <ele>278.92</ele>
        <time>2011-12-04T09:08:38Z</time>
      </trkpt>
      <trkpt lat="43.22141" lon="6.2332">
        <ele>282.28</ele>
        <time>2011-12-04T09:09:05Z</time>
      </trkpt>
      <trkpt lat="43.22115" lon="6.23337">
        <ele>285.65</ele>
        <time>2011-12-04T09:10:43Z</time>
      </trkpt>
      <trkpt lat="43.22094" lon="6.23357">
        <ele>291.9</ele>
        <time>2011-12-04T09:11:35Z</time>
      </trkpt>
      <trkpt lat="43.22074" lon="6.23371">
        <ele>297.67</ele>
        <time>2011-12-04T09:12:10Z</time>
      </trkpt>
      <trkpt lat="43.22058" lon="6.2339">
        <ele>302.95</ele>
        <time>2011-12-04T09:12:54Z</time>
      </trkpt>
      <trkpt lat="43.22037" lon="6.23408">
        <ele>304.88</ele>
        <time>2011-12-04T09:13:39Z</time>
      </trkpt>
      <trkpt lat="43.22019" lon="6.23422">
        <ele>307.28</ele>
        <time>2011-12-04T09:14:17Z</time>
      </trkpt>
      <trkpt lat="43.22003" lon="6.2344">
        <ele>313.53</ele>
        <time>2011-12-04T09:15:22Z</time>
      </trkpt>
      <trkpt lat="43.21984" lon="6.23456">
        <ele>320.74</ele>
        <time>2011-12-04T09:16:13Z</time>
      </trkpt>
      <trkpt lat="43.21964" lon="6.23476">
        <ele>326.99</ele>
        <time>2011-12-04T09:16:52Z</time>
      </trkpt>
      <trkpt lat="43.21956" lon="6.23504">
        <ele>330.83</ele>
        <time>2011-12-04T09:17:28Z</time>
      </trkpt>
      <trkpt lat="43.21938" lon="6.23537">
        <ele>329.87</ele>
        <time>2011-12-04T09:18:06Z</time>
      </trkpt>
      <trkpt lat="43.21926" lon="6.23575">
        <ele>331.79</ele>
        <time>2011-12-04T09:18:43Z</time>
      </trkpt>
      <trkpt lat="43.21912" lon="6.23607">
        <ele>333.23</ele>
        <time>2011-12-04T09:19:18Z</time>
      </trkpt>
      <trkpt lat="43.21902" lon="6.23631">
        <ele>336.6</ele>
        <time>2011-12-04T09:20:04Z</time>
      </trkpt>
      <trkpt lat="43.21903" lon="6.23659">
        <ele>338.04</ele>
        <time>2011-12-04T09:20:33Z</time>
      </trkpt>
      <trkpt lat="43.21892" lon="6.2369">
        <ele>339.48</ele>
        <time>2011-12-04T09:21:10Z</time>
      </trkpt>
      <trkpt lat="43.21893" lon="6.23728">
        <ele>343.33</ele>
        <time>2011-12-04T09:21:52Z</time>
      </trkpt>
      <trkpt lat="43.21886" lon="6.23758">
        <ele>348.13</ele>
        <time>2011-12-04T09:22:30Z</time>
      </trkpt>
      <trkpt lat="43.21876" lon="6.23782">
        <ele>352.94</ele>
        <time>2011-12-04T09:23:09Z</time>
      </trkpt>
      <trkpt lat="43.2187" lon="6.23808">
        <ele>358.71</ele>
        <time>2011-12-04T09:23:55Z</time>
      </trkpt>
      <trkpt lat="43.2186" lon="6.2383">
        <ele>363.52</ele>
        <time>2011-12-04T09:24:36Z</time>
      </trkpt>
      <trkpt lat="43.2186" lon="6.23858">
        <ele>368.32</ele>
        <time>2011-12-04T09:25:12Z</time>
      </trkpt>
      <trkpt lat="43.21859" lon="6.23891">
        <ele>372.17</ele>
        <time>2011-12-04T09:25:55Z</time>
      </trkpt>
      <trkpt lat="43.21857" lon="6.23918">
        <ele>373.61</ele>
        <time>2011-12-04T09:26:35Z</time>
      </trkpt>
      <trkpt lat="43.21853" lon="6.23946">
        <ele>373.13</ele>
        <time>2011-12-04T09:27:02Z</time>
      </trkpt>
      <trkpt lat="43.2184" lon="6.23969">
        <ele>375.05</ele>
        <time>2011-12-04T09:27:31Z</time>
      </trkpt>
      <trkpt lat="43.2183" lon="6.23994">
        <ele>373.13</ele>
        <time>2011-12-04T09:27:58Z</time>
      </trkpt>
      <trkpt lat="43.21815" lon="6.24019">
        <ele>376.01</ele>
        <time>2011-12-04T09:28:26Z</time>
      </trkpt>
      <trkpt lat="43.21799" lon="6.24034">
        <ele>379.86</ele>
        <time>2011-12-04T09:29:08Z</time>
      </trkpt>
      <trkpt lat="43.21782" lon="6.24048">
        <ele>385.15</ele>
        <time>2011-12-04T09:29:53Z</time>
      </trkpt>
      <trkpt lat="43.21769" lon="6.24063">
        <ele>388.99</ele>
        <time>2011-12-04T09:31:09Z</time>
      </trkpt>
      <trkpt lat="43.2175" lon="6.24077">
        <ele>395.72</ele>
        <time>2011-12-04T09:31:40Z</time>
      </trkpt>
      <trkpt lat="43.21733" lon="6.2409">
        <ele>400.53</ele>
        <time>2011-12-04T09:32:58Z</time>
      </trkpt>
      <trkpt lat="43.21718" lon="6.24104">
        <ele>406.29</ele>
        <time>2011-12-04T09:33:28Z</time>
      </trkpt>
      <trkpt lat="43.21703" lon="6.24113">
        <ele>410.14</ele>
        <time>2011-12-04T09:34:10Z</time>
      </trkpt>
      <trkpt lat="43.21694" lon="6.24139">
        <ele>413.98</ele>
        <time>2011-12-04T09:35:05Z</time>
      </trkpt>
      <trkpt lat="43.21693" lon="6.2416">
        <ele>413.98</ele>
        <time>2011-12-04T09:36:30Z</time>
      </trkpt>
      <trkpt lat="43.21687" lon="6.24196">
        <ele>416.39</ele>
        <time>2011-12-04T09:37:25Z</time>
      </trkpt>
      <trkpt lat="43.21688" lon="6.2424">
        <ele>416.87</ele>
        <time>2011-12-04T09:38:08Z</time>
      </trkpt>
      <trkpt lat="43.2168" lon="6.24252">
        <ele>418.31</ele>
        <time>2011-12-04T09:39:04Z</time>
      </trkpt>
      <trkpt lat="43.21662" lon="6.24227">
        <ele>421.68</ele>
        <time>2011-12-04T09:39:40Z</time>
      </trkpt>
      <trkpt lat="43.21647" lon="6.24197">
        <ele>423.12</ele>
        <time>2011-12-04T09:40:09Z</time>
      </trkpt>
      <trkpt lat="43.21632" lon="6.24187">
        <ele>422.16</ele>
        <time>2011-12-04T09:41:11Z</time>
      </trkpt>
      <trkpt lat="43.2163" lon="6.2419">
        <ele>424.08</ele>
        <time>2011-12-04T09:43:19Z</time>
      </trkpt>
      <trkpt lat="43.21644" lon="6.24197">
        <ele>422.64</ele>
        <time>2011-12-04T09:43:57Z</time>
      </trkpt>
      <trkpt lat="43.21662" lon="6.24225">
        <ele>420.23</ele>
        <time>2011-12-04T09:44:25Z</time>
      </trkpt>
      <trkpt lat="43.21676" lon="6.24247">
        <ele>419.27</ele>
        <time>2011-12-04T09:44:54Z</time>
      </trkpt>
      <trkpt lat="43.21688" lon="6.24267">
        <ele>414.47</ele>
        <time>2011-12-04T09:45:27Z</time>
      </trkpt>
      <trkpt lat="43.21696" lon="6.24295">
        <ele>410.14</ele>
        <time>2011-12-04T09:46:07Z</time>
      </trkpt>
      <trkpt lat="43.21697" lon="6.24314">
        <ele>405.33</ele>
        <time>2011-12-04T09:46:45Z</time>
      </trkpt>
      <trkpt lat="43.21693" lon="6.24342">
        <ele>401.49</ele>
        <time>2011-12-04T09:47:19Z</time>
      </trkpt>
      <trkpt lat="43.2169" lon="6.24376">
        <ele>397.64</ele>
        <time>2011-12-04T09:47:47Z</time>
      </trkpt>
      <trkpt lat="43.21687" lon="6.24419">
        <ele>393.8</ele>
        <time>2011-12-04T09:48:18Z</time>
      </trkpt>
      <trkpt lat="43.21682" lon="6.24452">
        <ele>392.84</ele>
        <time>2011-12-04T09:48:44Z</time>
      </trkpt>
      <trkpt lat="43.21686" lon="6.24487">
        <ele>393.32</ele>
        <time>2011-12-04T09:49:10Z</time>
      </trkpt>
      <trkpt lat="43.21683" lon="6.24514">
        <ele>390.43</ele>
        <time>2011-12-04T09:49:39Z</time>
      </trkpt>
      <trkpt lat="43.21677" lon="6.2455">
        <ele>389.47</ele>
        <time>2011-12-04T09:50:13Z</time>
      </trkpt>
      <trkpt lat="43.21678" lon="6.24584">
        <ele>389.47</ele>
        <time>2011-12-04T09:50:52Z</time>
      </trkpt>
      <trkpt lat="43.21678" lon="6.24617">
        <ele>391.87</ele>
        <time>2011-12-04T09:51:20Z</time>
      </trkpt>
      <trkpt lat="43.21683" lon="6.24645">
        <ele>394.28</ele>
        <time>2011-12-04T09:51:45Z</time>
      </trkpt>
      <trkpt lat="43.21679" lon="6.24673">
        <ele>397.16</ele>
        <time>2011-12-04T09:52:15Z</time>
      </trkpt>
      <trkpt lat="43.21672" lon="6.24697">
        <ele>399.08</ele>
        <time>2011-12-04T09:52:51Z</time>
      </trkpt>
      <trkpt lat="43.21677" lon="6.24726">
        <ele>399.57</ele>
        <time>2011-12-04T09:53:20Z</time>
      </trkpt>
      <trkpt lat="43.21689" lon="6.24739">
        <ele>397.64</ele>
        <time>2011-12-04T09:54:18Z</time>
      </trkpt>
      <trkpt lat="43.21705" lon="6.24764">
        <ele>393.32</ele>
        <time>2011-12-04T09:55:01Z</time>
      </trkpt>
      <trkpt lat="43.21708" lon="6.24801">
        <ele>392.84</ele>
        <time>2011-12-04T09:55:43Z</time>
      </trkpt>
      <trkpt lat="43.21711" lon="6.2483">
        <ele>394.28</ele>
        <time>2011-12-04T09:56:25Z</time>
      </trkpt>
      <trkpt lat="43.21724" lon="6.24854">
        <ele>395.24</ele>
        <time>2011-12-04T09:57:05Z</time>
      </trkpt>
      <trkpt lat="43.21744" lon="6.24866">
        <ele>394.76</ele>
        <time>2011-12-04T09:57:34Z</time>
      </trkpt>
      <trkpt lat="43.21771" lon="6.2488">
        <ele>391.39</ele>
        <time>2011-12-04T09:58:10Z</time>
      </trkpt>
      <trkpt lat="43.2179" lon="6.24908">
        <ele>389.95</ele>
        <time>2011-12-04T09:58:42Z</time>
      </trkpt>
      <trkpt lat="43.21807" lon="6.24935">
        <ele>385.63</ele>
        <time>2011-12-04T09:59:17Z</time>
      </trkpt>
      <trkpt lat="43.2183" lon="6.24954">
        <ele>381.78</ele>
        <time>2011-12-04T09:59:56Z</time>
      </trkpt>
      <trkpt lat="43.21869" lon="6.24968">
        <ele>374.57</ele>
        <time>2011-12-04T10:00:57Z</time>
      </trkpt>
      <trkpt lat="43.21902" lon="6.24965">
        <ele>371.69</ele>
        <time>2011-12-04T10:01:37Z</time>
      </trkpt>
      <trkpt lat="43.21925" lon="6.24958">
        <ele>369.76</ele>
        <time>2011-12-04T10:02:40Z</time>
      </trkpt>
      <trkpt lat="43.21935" lon="6.24985">
        <ele>367.36</ele>
        <time>2011-12-04T10:03:26Z</time>
      </trkpt>
      <trkpt lat="43.21941" lon="6.25027">
        <ele>364</ele>
        <time>2011-12-04T10:04:59Z</time>
      </trkpt>
      <trkpt lat="43.21947" lon="6.25058">
        <ele>360.15</ele>
        <time>2011-12-04T10:05:53Z</time>
      </trkpt>
      <trkpt lat="43.21962" lon="6.25098">
        <ele>354.86</ele>
        <time>2011-12-04T10:06:44Z</time>
      </trkpt>
      <trkpt lat="43.21982" lon="6.25121">
        <ele>351.02</ele>
        <time>2011-12-04T10:07:25Z</time>
      </trkpt>
      <trkpt lat="43.22" lon="6.25139">
        <ele>350.06</ele>
        <time>2011-12-04T10:07:54Z</time>
      </trkpt>
      <trkpt lat="43.22014" lon="6.25164">
        <ele>349.58</ele>
        <time>2011-12-04T10:08:27Z</time>
      </trkpt>
      <trkpt lat="43.22023" lon="6.25196">
        <ele>348.13</ele>
        <time>2011-12-04T10:09:06Z</time>
      </trkpt>
      <trkpt lat="43.22017" lon="6.25195">
        <ele>347.65</ele>
        <time>2011-12-04T10:12:03Z</time>
      </trkpt>
      <trkpt lat="43.22" lon="6.25182">
        <ele>343.33</ele>
        <time>2011-12-04T10:12:44Z</time>
      </trkpt>
      <trkpt lat="43.2198" lon="6.25177">
        <ele>338.52</ele>
        <time>2011-12-04T10:13:21Z</time>
      </trkpt>
      <trkpt lat="43.21958" lon="6.25187">
        <ele>335.16</ele>
        <time>2011-12-04T10:14:04Z</time>
      </trkpt>
      <trkpt lat="43.21951" lon="6.25224">
        <ele>329.87</ele>
        <time>2011-12-04T10:14:54Z</time>
      </trkpt>
      <trkpt lat="43.21939" lon="6.25265">
        <ele>323.62</ele>
        <time>2011-12-04T10:15:39Z</time>
      </trkpt>
      <trkpt lat="43.21925" lon="6.25296">
        <ele>318.33</ele>
        <time>2011-12-04T10:16:47Z</time>
      </trkpt>
      <trkpt lat="43.21904" lon="6.25328">
        <ele>314.97</ele>
        <time>2011-12-04T10:17:54Z</time>
      </trkpt>
      <trkpt lat="43.21894" lon="6.25362">
        <ele>308.24</ele>
        <time>2011-12-04T10:18:45Z</time>
      </trkpt>
      <trkpt lat="43.21877" lon="6.25387">
        <ele>307.28</ele>
        <time>2011-12-04T10:19:18Z</time>
      </trkpt>
      <trkpt lat="43.21857" lon="6.25412">
        <ele>304.39</ele>
        <time>2011-12-04T10:19:59Z</time>
      </trkpt>
      <trkpt lat="43.21834" lon="6.25422">
        <ele>299.11</ele>
        <time>2011-12-04T10:20:33Z</time>
      </trkpt>
      <trkpt lat="43.21821" lon="6.25451">
        <ele>294.3</ele>
        <time>2011-12-04T10:21:18Z</time>
      </trkpt>
      <trkpt lat="43.21816" lon="6.25494">
        <ele>283.73</ele>
        <time>2011-12-04T10:22:29Z</time>
      </trkpt>
      <trkpt lat="43.21817" lon="6.25556">
        <ele>277.48</ele>
        <time>2011-12-04T10:23:26Z</time>
      </trkpt>
      <trkpt lat="43.21838" lon="6.25581">
        <ele>271.23</ele>
        <time>2011-12-04T10:24:27Z</time>
      </trkpt>
      <trkpt lat="43.2186" lon="6.25611">
        <ele>264.98</ele>
        <time>2011-12-04T10:25:24Z</time>
      </trkpt>
      <trkpt lat="43.21875" lon="6.25638">
        <ele>258.25</ele>
        <time>2011-12-04T10:26:12Z</time>
      </trkpt>
      <trkpt lat="43.21896" lon="6.25657">
        <ele>253.44</ele>
        <time>2011-12-04T10:26:52Z</time>
      </trkpt>
      <trkpt lat="43.2192" lon="6.25677">
        <ele>244.79</ele>
        <time>2011-12-04T10:28:41Z</time>
      </trkpt>
      <trkpt lat="43.21942" lon="6.25691">
        <ele>238.06</ele>
        <time>2011-12-04T10:31:38Z</time>
      </trkpt>
      <trkpt lat="43.21965" lon="6.2571">
        <ele>232.3</ele>
        <time>2011-12-04T10:32:26Z</time>
      </trkpt>
      <trkpt lat="43.21986" lon="6.25731">
        <ele>225.09</ele>
        <time>2011-12-04T10:33:24Z</time>
      </trkpt>
      <trkpt lat="43.22003" lon="6.25754">
        <ele>217.88</ele>
        <time>2011-12-04T10:34:17Z</time>
      </trkpt>
      <trkpt lat="43.22014" lon="6.25798">
        <ele>208.74</ele>
        <time>2011-12-04T10:35:29Z</time>
      </trkpt>
      <trkpt lat="43.22024" lon="6.25833">
        <ele>206.34</ele>
        <time>2011-12-04T10:36:11Z</time>
      </trkpt>
      <trkpt lat="43.2203" lon="6.25844">
        <ele>205.38</ele>
        <time>2011-12-04T10:41:06Z</time>
      </trkpt>
      <trkpt lat="43.22044" lon="6.25876">
        <ele>205.86</ele>
        <time>2011-12-04T10:41:54Z</time>
      </trkpt>
      <trkpt lat="43.22043" lon="6.25916">
        <ele>201.53</ele>
        <time>2011-12-04T10:42:38Z</time>
      </trkpt>
      <trkpt lat="43.22052" lon="6.25958">
        <ele>198.17</ele>
        <time>2011-12-04T10:43:26Z</time>
      </trkpt>
      <trkpt lat="43.22067" lon="6.2599">
        <ele>193.84</ele>
        <time>2011-12-04T10:44:01Z</time>
      </trkpt>
      <trkpt lat="43.22079" lon="6.2602">
        <ele>191.44</ele>
        <time>2011-12-04T10:44:31Z</time>
      </trkpt>
      <trkpt lat="43.22082" lon="6.26053">
        <ele>187.11</ele>
        <time>2011-12-04T10:45:04Z</time>
      </trkpt>
      <trkpt lat="43.22089" lon="6.26087">
        <ele>185.67</ele>
        <time>2011-12-04T10:45:38Z</time>
      </trkpt>
      <trkpt lat="43.22101" lon="6.26113">
        <ele>183.75</ele>
        <time>2011-12-04T10:46:03Z</time>
      </trkpt>
      <trkpt lat="43.22114" lon="6.26143">
        <ele>182.79</ele>
        <time>2011-12-04T10:46:36Z</time>
      </trkpt>
      <trkpt lat="43.22125" lon="6.26174">
        <ele>182.79</ele>
        <time>2011-12-04T10:47:03Z</time>
      </trkpt>
      <trkpt lat="43.2213" lon="6.26208">
        <ele>180.87</ele>
        <time>2011-12-04T10:47:32Z</time>
      </trkpt>
      <trkpt lat="43.22135" lon="6.26251">
        <ele>178.46</ele>
        <time>2011-12-04T10:48:11Z</time>
      </trkpt>
      <trkpt lat="43.22141" lon="6.26288">
        <ele>176.06</ele>
        <time>2011-12-04T10:48:42Z</time>
      </trkpt>
      <trkpt lat="43.22147" lon="6.26323">
        <ele>174.14</ele>
        <time>2011-12-04T10:49:09Z</time>
      </trkpt>
      <trkpt lat="43.2216" lon="6.2635">
        <ele>172.21</ele>
        <time>2011-12-04T10:49:36Z</time>
      </trkpt>
      <trkpt lat="43.22179" lon="6.26371">
        <ele>171.25</ele>
        <time>2011-12-04T10:50:04Z</time>
      </trkpt>
      <trkpt lat="43.22198" lon="6.26387">
        <ele>169.81</ele>
        <time>2011-12-04T10:50:27Z</time>
      </trkpt>
      <trkpt lat="43.22214" lon="6.26413">
        <ele>167.41</ele>
        <time>2011-12-04T10:50:52Z</time>
      </trkpt>
      <trkpt lat="43.22228" lon="6.26444">
        <ele>164.04</ele>
        <time>2011-12-04T10:51:22Z</time>
      </trkpt>
      <trkpt lat="43.22251" lon="6.26467">
        <ele>162.12</ele>
        <time>2011-12-04T10:51:54Z</time>
      </trkpt>
      <trkpt lat="43.22268" lon="6.26488">
        <ele>160.2</ele>
        <time>2011-12-04T10:52:18Z</time>
      </trkpt>
      <trkpt lat="43.22277" lon="6.26518">
        <ele>159.24</ele>
        <time>2011-12-04T10:52:45Z</time>
      </trkpt>
      <trkpt lat="43.22295" lon="6.26532">
        <ele>158.75</ele>
        <time>2011-12-04T10:53:30Z</time>
      </trkpt>
      <trkpt lat="43.22304" lon="6.26549">
        <ele>157.79</ele>
        <time>2011-12-04T10:55:11Z</time>
      </trkpt>
      <trkpt lat="43.22306" lon="6.26582">
        <ele>156.35</ele>
        <time>2011-12-04T10:55:37Z</time>
      </trkpt>
      <trkpt lat="43.2231" lon="6.26607">
        <ele>155.87</ele>
        <time>2011-12-04T10:56:15Z</time>
      </trkpt>
      <trkpt lat="43.22313" lon="6.26647">
        <ele>155.39</ele>
        <time>2011-12-04T10:56:48Z</time>
      </trkpt>
      <trkpt lat="43.22312" lon="6.26681">
        <ele>155.39</ele>
        <time>2011-12-04T10:57:12Z</time>
      </trkpt>
      <trkpt lat="43.22322" lon="6.26708">
        <ele>155.39</ele>
        <time>2011-12-04T10:57:33Z</time>
      </trkpt>
      <trkpt lat="43.22332" lon="6.26736">
        <ele>155.39</ele>
        <time>2011-12-04T10:58:00Z</time>
      </trkpt>
      <trkpt lat="43.22356" lon="6.26756">
        <ele>156.83</ele>
        <time>2011-12-04T10:58:31Z</time>
      </trkpt>
      <trkpt lat="43.22391" lon="6.26774">
        <ele>159.72</ele>
        <time>2011-12-04T10:59:03Z</time>
      </trkpt>
      <trkpt lat="43.22406" lon="6.26795">
        <ele>159.24</ele>
        <time>2011-12-04T10:59:30Z</time>
      </trkpt>
      <trkpt lat="43.22423" lon="6.26814">
        <ele>155.87</ele>
        <time>2011-12-04T10:59:56Z</time>
      </trkpt>
      <trkpt lat="43.22446" lon="6.26819">
        <ele>154.91</ele>
        <time>2011-12-04T11:00:21Z</time>
      </trkpt>
      <trkpt lat="43.22454" lon="6.2684">
        <ele>153.95</ele>
        <time>2011-12-04T11:01:03Z</time>
      </trkpt>
      <trkpt lat="43.22461" lon="6.26867">
        <ele>153.95</ele>
        <time>2011-12-04T11:01:25Z</time>
      </trkpt>
      <trkpt lat="43.22466" lon="6.26892">
        <ele>154.43</ele>
        <time>2011-12-04T11:01:52Z</time>
      </trkpt>
      <trkpt lat="43.2248" lon="6.26906">
        <ele>153.95</ele>
        <time>2011-12-04T11:02:19Z</time>
      </trkpt>
      <trkpt lat="43.22493" lon="6.26908">
        <ele>152.51</ele>
        <time>2011-12-04T11:02:58Z</time>
      </trkpt>
      <trkpt lat="43.22508" lon="6.2693">
        <ele>153.47</ele>
        <time>2011-12-04T11:03:33Z</time>
      </trkpt>
      <trkpt lat="43.22519" lon="6.26927">
        <ele>154.91</ele>
        <time>2011-12-04T11:04:14Z</time>
      </trkpt>
      <trkpt lat="43.22545" lon="6.26925">
        <ele>158.27</ele>
        <time>2011-12-04T11:05:02Z</time>
      </trkpt>
      <trkpt lat="43.22548" lon="6.26921">
        <ele>157.79</ele>
        <time>2011-12-04T11:07:46Z</time>
      </trkpt>
      <trkpt lat="43.22543" lon="6.26921">
        <ele>160.68</ele>
        <time>2011-12-04T11:59:08Z</time>
      </trkpt>
      <trkpt lat="43.22523" lon="6.26912">
        <ele>157.79</ele>
        <time>2011-12-04T12:00:04Z</time>
      </trkpt>
      <trkpt lat="43.22504" lon="6.26914">
        <ele>158.27</ele>
        <time>2011-12-04T12:00:32Z</time>
      </trkpt>
      <trkpt lat="43.22485" lon="6.26906">
        <ele>158.27</ele>
        <time>2011-12-04T12:00:53Z</time>
      </trkpt>
      <trkpt lat="43.22468" lon="6.26902">
        <ele>160.2</ele>
        <time>2011-12-04T12:01:14Z</time>
      </trkpt>
      <trkpt lat="43.22462" lon="6.26878">
        <ele>161.16</ele>
        <time>2011-12-04T12:01:34Z</time>
      </trkpt>
      <trkpt lat="43.22455" lon="6.2685">
        <ele>160.68</ele>
        <time>2011-12-04T12:01:54Z</time>
      </trkpt>
      <trkpt lat="43.22451" lon="6.26823">
        <ele>160.68</ele>
        <time>2011-12-04T12:02:11Z</time>
      </trkpt>
      <trkpt lat="43.22435" lon="6.2682">
        <ele>162.6</ele>
        <time>2011-12-04T12:03:07Z</time>
      </trkpt>
      <trkpt lat="43.22449" lon="6.26829">
        <ele>162.12</ele>
        <time>2011-12-04T12:05:57Z</time>
      </trkpt>
      <trkpt lat="43.22443" lon="6.26825">
        <ele>162.6</ele>
        <time>2011-12-04T12:06:16Z</time>
      </trkpt>
      <trkpt lat="43.22429" lon="6.26818">
        <ele>164.04</ele>
        <time>2011-12-04T12:07:43Z</time>
      </trkpt>
      <trkpt lat="43.22411" lon="6.26804">
        <ele>165</ele>
        <time>2011-12-04T12:08:08Z</time>
      </trkpt>
      <trkpt lat="43.22407" lon="6.26789">
        <ele>166.93</ele>
        <time>2011-12-04T12:10:31Z</time>
      </trkpt>
      <trkpt lat="43.22413" lon="6.26781">
        <ele>168.37</ele>
        <time>2011-12-04T12:11:57Z</time>
      </trkpt>
      <trkpt lat="43.22431" lon="6.26792">
        <ele>169.81</ele>
        <time>2011-12-04T12:12:17Z</time>
      </trkpt>
      <trkpt lat="43.22451" lon="6.26784">
        <ele>171.73</ele>
        <time>2011-12-04T12:12:41Z</time>
      </trkpt>
      <trkpt lat="43.22472" lon="6.26766">
        <ele>174.62</ele>
        <time>2011-12-04T12:13:11Z</time>
      </trkpt>
      <trkpt lat="43.22496" lon="6.26745">
        <ele>176.06</ele>
        <time>2011-12-04T12:13:39Z</time>
      </trkpt>
      <trkpt lat="43.22513" lon="6.26724">
        <ele>176.06</ele>
        <time>2011-12-04T12:14:09Z</time>
      </trkpt>
      <trkpt lat="43.22531" lon="6.26699">
        <ele>176.54</ele>
        <time>2011-12-04T12:14:34Z</time>
      </trkpt>
      <trkpt lat="43.22541" lon="6.2667">
        <ele>177.5</ele>
        <time>2011-12-04T12:14:56Z</time>
      </trkpt>
      <trkpt lat="43.22548" lon="6.26637">
        <ele>178.94</ele>
        <time>2011-12-04T12:15:23Z</time>
      </trkpt>
      <trkpt lat="43.22573" lon="6.26619">
        <ele>180.87</ele>
        <time>2011-12-04T12:15:56Z</time>
      </trkpt>
      <trkpt lat="43.22599" lon="6.26605">
        <ele>183.75</ele>
        <time>2011-12-04T12:16:28Z</time>
      </trkpt>
      <trkpt lat="43.22617" lon="6.26582">
        <ele>186.63</ele>
        <time>2011-12-04T12:16:59Z</time>
      </trkpt>
      <trkpt lat="43.2264" lon="6.26561">
        <ele>189.04</ele>
        <time>2011-12-04T12:17:25Z</time>
      </trkpt>
      <trkpt lat="43.22655" lon="6.26535">
        <ele>190.96</ele>
        <time>2011-12-04T12:17:46Z</time>
      </trkpt>
      <trkpt lat="43.22654" lon="6.26507">
        <ele>191.92</ele>
        <time>2011-12-04T12:18:09Z</time>
      </trkpt>
      <trkpt lat="43.22649" lon="6.2648">
        <ele>194.32</ele>
        <time>2011-12-04T12:18:35Z</time>
      </trkpt>
      <trkpt lat="43.22642" lon="6.2645">
        <ele>195.28</ele>
        <time>2011-12-04T12:19:03Z</time>
      </trkpt>
      <trkpt lat="43.22629" lon="6.26409">
        <ele>197.21</ele>
        <time>2011-12-04T12:19:42Z</time>
      </trkpt>
      <trkpt lat="43.22626" lon="6.26377">
        <ele>199.61</ele>
        <time>2011-12-04T12:20:07Z</time>
      </trkpt>
      <trkpt lat="43.22622" lon="6.26344">
        <ele>201.53</ele>
        <time>2011-12-04T12:20:32Z</time>
      </trkpt>
      <trkpt lat="43.22618" lon="6.26312">
        <ele>203.94</ele>
        <time>2011-12-04T12:20:59Z</time>
      </trkpt>
      <trkpt lat="43.22619" lon="6.26282">
        <ele>206.82</ele>
        <time>2011-12-04T12:21:24Z</time>
      </trkpt>
      <trkpt lat="43.22624" lon="6.26255">
        <ele>207.78</ele>
        <time>2011-12-04T12:21:47Z</time>
      </trkpt>
      <trkpt lat="43.22628" lon="6.26225">
        <ele>209.7</ele>
        <time>2011-12-04T12:22:13Z</time>
      </trkpt>
      <trkpt lat="43.22647" lon="6.26204">
        <ele>211.15</ele>
        <time>2011-12-04T12:22:41Z</time>
      </trkpt>
      <trkpt lat="43.22676" lon="6.26196">
        <ele>213.07</ele>
        <time>2011-12-04T12:23:20Z</time>
      </trkpt>
      <trkpt lat="43.22694" lon="6.26208">
        <ele>213.55</ele>
        <time>2011-12-04T12:23:42Z</time>
      </trkpt>
      <trkpt lat="43.22716" lon="6.26217">
        <ele>215.47</ele>
        <time>2011-12-04T12:24:10Z</time>
      </trkpt>
      <trkpt lat="43.22741" lon="6.26219">
        <ele>216.43</ele>
        <time>2011-12-04T12:24:39Z</time>
      </trkpt>
      <trkpt lat="43.22761" lon="6.26215">
        <ele>218.84</ele>
        <time>2011-12-04T12:25:07Z</time>
      </trkpt>
      <trkpt lat="43.22778" lon="6.26194">
        <ele>219.32</ele>
        <time>2011-12-04T12:25:39Z</time>
      </trkpt>
      <trkpt lat="43.2278" lon="6.26169">
        <ele>220.28</ele>
        <time>2011-12-04T12:26:18Z</time>
      </trkpt>
      <trkpt lat="43.22768" lon="6.26141">
        <ele>220.76</ele>
        <time>2011-12-04T12:26:46Z</time>
      </trkpt>
      <trkpt lat="43.22757" lon="6.2611">
        <ele>221.24</ele>
        <time>2011-12-04T12:27:18Z</time>
      </trkpt>
      <trkpt lat="43.2275" lon="6.26078">
        <ele>222.68</ele>
        <time>2011-12-04T12:27:46Z</time>
      </trkpt>
      <trkpt lat="43.22743" lon="6.26049">
        <ele>223.16</ele>
        <time>2011-12-04T12:28:11Z</time>
      </trkpt>
      <trkpt lat="43.2274" lon="6.26019">
        <ele>224.61</ele>
        <time>2011-12-04T12:28:35Z</time>
      </trkpt>
      <trkpt lat="43.22736" lon="6.25994">
        <ele>223.16</ele>
        <time>2011-12-04T12:28:59Z</time>
      </trkpt>
      <trkpt lat="43.22718" lon="6.25973">
        <ele>224.12</ele>
        <time>2011-12-04T12:29:32Z</time>
      </trkpt>
      <trkpt lat="43.22699" lon="6.25954">
        <ele>225.09</ele>
        <time>2011-12-04T12:30:00Z</time>
      </trkpt>
      <trkpt lat="43.2268" lon="6.25932">
        <ele>227.49</ele>
        <time>2011-12-04T12:30:28Z</time>
      </trkpt>
      <trkpt lat="43.22673" lon="6.25899">
        <ele>227.49</ele>
        <time>2011-12-04T12:30:55Z</time>
      </trkpt>
      <trkpt lat="43.22684" lon="6.25872">
        <ele>228.45</ele>
        <time>2011-12-04T12:31:18Z</time>
      </trkpt>
      <trkpt lat="43.22689" lon="6.25845">
        <ele>228.93</ele>
        <time>2011-12-04T12:31:42Z</time>
      </trkpt>
      <trkpt lat="43.22694" lon="6.25814">
        <ele>230.37</ele>
        <time>2011-12-04T12:32:09Z</time>
      </trkpt>
      <trkpt lat="43.22695" lon="6.2578">
        <ele>231.33</ele>
        <time>2011-12-04T12:32:35Z</time>
      </trkpt>
      <trkpt lat="43.22696" lon="6.25748">
        <ele>231.81</ele>
        <time>2011-12-04T12:33:00Z</time>
      </trkpt>
      <trkpt lat="43.22694" lon="6.25717">
        <ele>233.26</ele>
        <time>2011-12-04T12:33:23Z</time>
      </trkpt>
      <trkpt lat="43.22706" lon="6.25688">
        <ele>234.22</ele>
        <time>2011-12-04T12:33:49Z</time>
      </trkpt>
      <trkpt lat="43.22721" lon="6.25661">
        <ele>234.7</ele>
        <time>2011-12-04T12:34:15Z</time>
      </trkpt>
      <trkpt lat="43.22714" lon="6.25637">
        <ele>234.7</ele>
        <time>2011-12-04T12:34:38Z</time>
      </trkpt>
      <trkpt lat="43.22696" lon="6.25623">
        <ele>235.18</ele>
        <time>2011-12-04T12:34:59Z</time>
      </trkpt>
      <trkpt lat="43.22678" lon="6.25614">
        <ele>235.18</ele>
        <time>2011-12-04T12:35:20Z</time>
      </trkpt>
      <trkpt lat="43.22658" lon="6.25603">
        <ele>235.66</ele>
        <time>2011-12-04T12:35:45Z</time>
      </trkpt>
      <trkpt lat="43.22638" lon="6.25587">
        <ele>238.06</ele>
        <time>2011-12-04T12:36:08Z</time>
      </trkpt>
      <trkpt lat="43.22619" lon="6.25575">
        <ele>236.62</ele>
        <time>2011-12-04T12:36:30Z</time>
      </trkpt>
      <trkpt lat="43.22596" lon="6.25567">
        <ele>238.54</ele>
        <time>2011-12-04T12:36:53Z</time>
      </trkpt>
      <trkpt lat="43.22576" lon="6.25557">
        <ele>239.99</ele>
        <time>2011-12-04T12:37:15Z</time>
      </trkpt>
      <trkpt lat="43.22556" lon="6.2555">
        <ele>241.43</ele>
        <time>2011-12-04T12:37:36Z</time>
      </trkpt>
      <trkpt lat="43.22533" lon="6.25541">
        <ele>242.87</ele>
        <time>2011-12-04T12:38:16Z</time>
      </trkpt>
      <trkpt lat="43.22525" lon="6.25517">
        <ele>243.83</ele>
        <time>2011-12-04T12:38:41Z</time>
      </trkpt>
      <trkpt lat="43.22538" lon="6.25489">
        <ele>245.75</ele>
        <time>2011-12-04T12:39:10Z</time>
      </trkpt>
      <trkpt lat="43.22545" lon="6.25456">
        <ele>246.23</ele>
        <time>2011-12-04T12:39:36Z</time>
      </trkpt>
      <trkpt lat="43.22553" lon="6.25428">
        <ele>248.64</ele>
        <time>2011-12-04T12:40:03Z</time>
      </trkpt>
      <trkpt lat="43.22572" lon="6.25406">
        <ele>248.16</ele>
        <time>2011-12-04T12:40:29Z</time>
      </trkpt>
      <trkpt lat="43.22578" lon="6.25376">
        <ele>249.12</ele>
        <time>2011-12-04T12:40:52Z</time>
      </trkpt>
      <trkpt lat="43.22589" lon="6.25346">
        <ele>250.08</ele>
        <time>2011-12-04T12:41:16Z</time>
      </trkpt>
      <trkpt lat="43.22595" lon="6.25316">
        <ele>252.48</ele>
        <time>2011-12-04T12:41:41Z</time>
      </trkpt>
      <trkpt lat="43.22598" lon="6.25285">
        <ele>252.96</ele>
        <time>2011-12-04T12:42:03Z</time>
      </trkpt>
      <trkpt lat="43.22597" lon="6.25258">
        <ele>254.89</ele>
        <time>2011-12-04T12:42:24Z</time>
      </trkpt>
      <trkpt lat="43.22593" lon="6.25259">
        <ele>253.44</ele>
        <time>2011-12-04T12:46:07Z</time>
      </trkpt>
      <trkpt lat="43.22593" lon="6.25256">
        <ele>255.37</ele>
        <time>2011-12-04T12:46:36Z</time>
      </trkpt>
      <trkpt lat="43.22608" lon="6.25239">
        <ele>252.48</ele>
        <time>2011-12-04T12:46:58Z</time>
      </trkpt>
      <trkpt lat="43.22606" lon="6.25246">
        <ele>253.93</ele>
        <time>2011-12-04T12:47:23Z</time>
      </trkpt>
      <trkpt lat="43.22589" lon="6.2526">
        <ele>254.41</ele>
        <time>2011-12-04T12:47:45Z</time>
      </trkpt>
      <trkpt lat="43.22568" lon="6.25256">
        <ele>253.93</ele>
        <time>2011-12-04T12:48:09Z</time>
      </trkpt>
      <trkpt lat="43.22538" lon="6.25255">
        <ele>254.41</ele>
        <time>2011-12-04T12:48:41Z</time>
      </trkpt>
      <trkpt lat="43.22514" lon="6.25259">
        <ele>254.41</ele>
        <time>2011-12-04T12:49:05Z</time>
      </trkpt>
      <trkpt lat="43.22492" lon="6.25265">
        <ele>256.33</ele>
        <time>2011-12-04T12:49:27Z</time>
      </trkpt>
      <trkpt lat="43.2247" lon="6.25263">
        <ele>254.89</ele>
        <time>2011-12-04T12:49:50Z</time>
      </trkpt>
      <trkpt lat="43.22449" lon="6.25254">
        <ele>255.37</ele>
        <time>2011-12-04T12:50:10Z</time>
      </trkpt>
      <trkpt lat="43.2243" lon="6.25257">
        <ele>255.37</ele>
        <time>2011-12-04T12:50:30Z</time>
      </trkpt>
      <trkpt lat="43.22409" lon="6.25262">
        <ele>256.33</ele>
        <time>2011-12-04T12:50:51Z</time>
      </trkpt>
      <trkpt lat="43.22386" lon="6.2528">
        <ele>255.85</ele>
        <time>2011-12-04T12:51:16Z</time>
      </trkpt>
      <trkpt lat="43.22366" lon="6.25274">
        <ele>255.85</ele>
        <time>2011-12-04T12:51:41Z</time>
      </trkpt>
      <trkpt lat="43.22358" lon="6.25234">
        <ele>257.29</ele>
        <time>2011-12-04T12:52:07Z</time>
      </trkpt>
      <trkpt lat="43.22354" lon="6.25199">
        <ele>258.73</ele>
        <time>2011-12-04T12:52:31Z</time>
      </trkpt>
      <trkpt lat="43.22343" lon="6.25168">
        <ele>259.69</ele>
        <time>2011-12-04T12:52:55Z</time>
      </trkpt>
      <trkpt lat="43.22321" lon="6.25176">
        <ele>258.73</ele>
        <time>2011-12-04T12:53:16Z</time>
      </trkpt>
      <trkpt lat="43.22302" lon="6.25186">
        <ele>258.73</ele>
        <time>2011-12-04T12:53:36Z</time>
      </trkpt>
      <trkpt lat="43.22282" lon="6.25196">
        <ele>259.21</ele>
        <time>2011-12-04T12:53:57Z</time>
      </trkpt>
      <trkpt lat="43.22262" lon="6.25205">
        <ele>257.77</ele>
        <time>2011-12-04T12:54:16Z</time>
      </trkpt>
      <trkpt lat="43.22247" lon="6.25199">
        <ele>259.21</ele>
        <time>2011-12-04T12:54:40Z</time>
      </trkpt>
      <trkpt lat="43.22247" lon="6.25159">
        <ele>259.21</ele>
        <time>2011-12-04T12:55:05Z</time>
      </trkpt>
      <trkpt lat="43.22244" lon="6.25128">
        <ele>259.69</ele>
        <time>2011-12-04T12:55:29Z</time>
      </trkpt>
      <trkpt lat="43.22229" lon="6.25102">
        <ele>259.21</ele>
        <time>2011-12-04T12:55:55Z</time>
      </trkpt>
      <trkpt lat="43.22206" lon="6.25098">
        <ele>258.73</ele>
        <time>2011-12-04T12:56:18Z</time>
      </trkpt>
      <trkpt lat="43.22182" lon="6.25079">
        <ele>258.25</ele>
        <time>2011-12-04T12:56:44Z</time>
      </trkpt>
      <trkpt lat="43.22192" lon="6.25032">
        <ele>257.29</ele>
        <time>2011-12-04T12:57:20Z</time>
      </trkpt>
      <trkpt lat="43.22188" lon="6.25">
        <ele>258.73</ele>
        <time>2011-12-04T12:57:55Z</time>
      </trkpt>
      <trkpt lat="43.22165" lon="6.24987">
        <ele>257.77</ele>
        <time>2011-12-04T12:58:18Z</time>
      </trkpt>
      <trkpt lat="43.22143" lon="6.24981">
        <ele>256.81</ele>
        <time>2011-12-04T12:58:42Z</time>
      </trkpt>
      <trkpt lat="43.22123" lon="6.24972">
        <ele>257.77</ele>
        <time>2011-12-04T12:59:07Z</time>
      </trkpt>
      <trkpt lat="43.22134" lon="6.24932">
        <ele>257.77</ele>
        <time>2011-12-04T12:59:35Z</time>
      </trkpt>
      <trkpt lat="43.22141" lon="6.24899">
        <ele>257.77</ele>
        <time>2011-12-04T13:00:00Z</time>
      </trkpt>
      <trkpt lat="43.22144" lon="6.24864">
        <ele>257.77</ele>
        <time>2011-12-04T13:00:26Z</time>
      </trkpt>
      <trkpt lat="43.22167" lon="6.24839">
        <ele>258.25</ele>
        <time>2011-12-04T13:00:54Z</time>
      </trkpt>
      <trkpt lat="43.22189" lon="6.24814">
        <ele>257.29</ele>
        <time>2011-12-04T13:01:20Z</time>
      </trkpt>
      <trkpt lat="43.222" lon="6.24781">
        <ele>257.29</ele>
        <time>2011-12-04T13:01:47Z</time>
      </trkpt>
      <trkpt lat="43.22196" lon="6.24746">
        <ele>256.33</ele>
        <time>2011-12-04T13:02:11Z</time>
      </trkpt>
      <trkpt lat="43.22187" lon="6.24713">
        <ele>255.37</ele>
        <time>2011-12-04T13:02:35Z</time>
      </trkpt>
      <trkpt lat="43.22184" lon="6.2468">
        <ele>255.37</ele>
        <time>2011-12-04T13:02:59Z</time>
      </trkpt>
      <trkpt lat="43.22171" lon="6.24654">
        <ele>255.85</ele>
        <time>2011-12-04T13:03:22Z</time>
      </trkpt>
      <trkpt lat="43.22151" lon="6.2464">
        <ele>255.85</ele>
        <time>2011-12-04T13:03:44Z</time>
      </trkpt>
      <trkpt lat="43.2213" lon="6.24632">
        <ele>256.33</ele>
        <time>2011-12-04T13:04:03Z</time>
      </trkpt>
      <trkpt lat="43.22108" lon="6.24628">
        <ele>255.37</ele>
        <time>2011-12-04T13:04:27Z</time>
      </trkpt>
      <trkpt lat="43.22085" lon="6.2463">
        <ele>254.89</ele>
        <time>2011-12-04T13:04:50Z</time>
      </trkpt>
      <trkpt lat="43.22065" lon="6.2464">
        <ele>255.37</ele>
        <time>2011-12-04T13:05:10Z</time>
      </trkpt>
      <trkpt lat="43.22047" lon="6.24657">
        <ele>255.85</ele>
        <time>2011-12-04T13:05:31Z</time>
      </trkpt>
      <trkpt lat="43.22028" lon="6.24675">
        <ele>256.33</ele>
        <time>2011-12-04T13:05:54Z</time>
      </trkpt>
      <trkpt lat="43.22005" lon="6.24687">
        <ele>254.41</ele>
        <time>2011-12-04T13:06:18Z</time>
      </trkpt>
      <trkpt lat="43.21999" lon="6.24663">
        <ele>255.37</ele>
        <time>2011-12-04T13:06:41Z</time>
      </trkpt>
      <trkpt lat="43.21993" lon="6.24632">
        <ele>255.85</ele>
        <time>2011-12-04T13:07:10Z</time>
      </trkpt>
      <trkpt lat="43.21974" lon="6.24613">
        <ele>256.81</ele>
        <time>2011-12-04T13:07:34Z</time>
      </trkpt>
      <trkpt lat="43.2195" lon="6.24611">
        <ele>255.85</ele>
        <time>2011-12-04T13:08:00Z</time>
      </trkpt>
      <trkpt lat="43.21937" lon="6.24595">
        <ele>255.37</ele>
        <time>2011-12-04T13:08:22Z</time>
      </trkpt>
      <trkpt lat="43.21926" lon="6.2457">
        <ele>255.85</ele>
        <time>2011-12-04T13:08:46Z</time>
      </trkpt>
      <trkpt lat="43.21941" lon="6.24541">
        <ele>256.33</ele>
        <time>2011-12-04T13:09:17Z</time>
      </trkpt>
      <trkpt lat="43.21968" lon="6.24527">
        <ele>255.37</ele>
        <time>2011-12-04T13:09:45Z</time>
      </trkpt>
      <trkpt lat="43.21991" lon="6.24508">
        <ele>255.37</ele>
        <time>2011-12-04T13:10:10Z</time>
      </trkpt>
      <trkpt lat="43.22005" lon="6.24485">
        <ele>254.41</ele>
        <time>2011-12-04T13:10:36Z</time>
      </trkpt>
      <trkpt lat="43.22017" lon="6.24459">
        <ele>255.37</ele>
        <time>2011-12-04T13:10:59Z</time>
      </trkpt>
      <trkpt lat="43.22034" lon="6.24435">
        <ele>255.37</ele>
        <time>2011-12-04T13:11:23Z</time>
      </trkpt>
      <trkpt lat="43.22057" lon="6.24413">
        <ele>256.33</ele>
        <time>2011-12-04T13:11:52Z</time>
      </trkpt>
      <trkpt lat="43.22082" lon="6.24395">
        <ele>256.33</ele>
        <time>2011-12-04T13:12:22Z</time>
      </trkpt>
      <trkpt lat="43.22104" lon="6.2438">
        <ele>256.33</ele>
        <time>2011-12-04T13:12:46Z</time>
      </trkpt>
      <trkpt lat="43.2212" lon="6.24358">
        <ele>255.37</ele>
        <time>2011-12-04T13:13:09Z</time>
      </trkpt>
      <trkpt lat="43.22128" lon="6.24326">
        <ele>255.37</ele>
        <time>2011-12-04T13:13:32Z</time>
      </trkpt>
      <trkpt lat="43.22126" lon="6.24299">
        <ele>255.37</ele>
        <time>2011-12-04T13:13:54Z</time>
      </trkpt>
      <trkpt lat="43.22114" lon="6.24271">
        <ele>256.81</ele>
        <time>2011-12-04T13:14:18Z</time>
      </trkpt>
      <trkpt lat="43.221" lon="6.24252">
        <ele>257.77</ele>
        <time>2011-12-04T13:14:38Z</time>
      </trkpt>
      <trkpt lat="43.22081" lon="6.24239">
        <ele>256.81</ele>
        <time>2011-12-04T13:15:04Z</time>
      </trkpt>
      <trkpt lat="43.22059" lon="6.24224">
        <ele>255.37</ele>
        <time>2011-12-04T13:15:26Z</time>
      </trkpt>
      <trkpt lat="43.22039" lon="6.24209">
        <ele>259.69</ele>
        <time>2011-12-04T13:15:49Z</time>
      </trkpt>
      <trkpt lat="43.22019" lon="6.24192">
        <ele>261.14</ele>
        <time>2011-12-04T13:16:18Z</time>
      </trkpt>
      <trkpt lat="43.21998" lon="6.24173">
        <ele>262.58</ele>
        <time>2011-12-04T13:16:40Z</time>
      </trkpt>
      <trkpt lat="43.21979" lon="6.24159">
        <ele>263.06</ele>
        <time>2011-12-04T13:17:04Z</time>
      </trkpt>
      <trkpt lat="43.2199" lon="6.24135">
        <ele>263.54</ele>
        <time>2011-12-04T13:17:29Z</time>
      </trkpt>
      <trkpt lat="43.22013" lon="6.24124">
        <ele>264.02</ele>
        <time>2011-12-04T13:17:53Z</time>
      </trkpt>
      <trkpt lat="43.22044" lon="6.2411">
        <ele>264.02</ele>
        <time>2011-12-04T13:18:26Z</time>
      </trkpt>
      <trkpt lat="43.22067" lon="6.24102">
        <ele>264.02</ele>
        <time>2011-12-04T13:18:50Z</time>
      </trkpt>
      <trkpt lat="43.22089" lon="6.24088">
        <ele>263.54</ele>
        <time>2011-12-04T13:19:14Z</time>
      </trkpt>
      <trkpt lat="43.2211" lon="6.24073">
        <ele>264.02</ele>
        <time>2011-12-04T13:19:37Z</time>
      </trkpt>
      <trkpt lat="43.22135" lon="6.24065">
        <ele>263.54</ele>
        <time>2011-12-04T13:20:02Z</time>
      </trkpt>
      <trkpt lat="43.22158" lon="6.24067">
        <ele>263.06</ele>
        <time>2011-12-04T13:20:24Z</time>
      </trkpt>
      <trkpt lat="43.22183" lon="6.2407">
        <ele>264.02</ele>
        <time>2011-12-04T13:20:50Z</time>
      </trkpt>
      <trkpt lat="43.22214" lon="6.24071">
        <ele>264.98</ele>
        <time>2011-12-04T13:21:20Z</time>
      </trkpt>
      <trkpt lat="43.22237" lon="6.24076">
        <ele>264.98</ele>
        <time>2011-12-04T13:21:42Z</time>
      </trkpt>
      <trkpt lat="43.22259" lon="6.24085">
        <ele>265.94</ele>
        <time>2011-12-04T13:22:07Z</time>
      </trkpt>
      <trkpt lat="43.22275" lon="6.24067">
        <ele>265.94</ele>
        <time>2011-12-04T13:22:36Z</time>
      </trkpt>
      <trkpt lat="43.2228" lon="6.24037">
        <ele>265.46</ele>
        <time>2011-12-04T13:23:02Z</time>
      </trkpt>
      <trkpt lat="43.22289" lon="6.24051">
        <ele>262.1</ele>
        <time>2011-12-04T13:23:47Z</time>
      </trkpt>
      <trkpt lat="43.22289" lon="6.24087">
        <ele>258.25</ele>
        <time>2011-12-04T13:24:22Z</time>
      </trkpt>
      <trkpt lat="43.22292" lon="6.24119">
        <ele>255.85</ele>
        <time>2011-12-04T13:24:52Z</time>
      </trkpt>
      <trkpt lat="43.22295" lon="6.24152">
        <ele>249.12</ele>
        <time>2011-12-04T13:25:30Z</time>
      </trkpt>
      <trkpt lat="43.22308" lon="6.24179">
        <ele>243.35</ele>
        <time>2011-12-04T13:26:06Z</time>
      </trkpt>
      <trkpt lat="43.22323" lon="6.2417">
        <ele>238.06</ele>
        <time>2011-12-04T13:26:37Z</time>
      </trkpt>
      <trkpt lat="43.22338" lon="6.24144">
        <ele>231.81</ele>
        <time>2011-12-04T13:27:19Z</time>
      </trkpt>
      <trkpt lat="43.22352" lon="6.24117">
        <ele>225.57</ele>
        <time>2011-12-04T13:28:03Z</time>
      </trkpt>
      <trkpt lat="43.22364" lon="6.24091">
        <ele>219.8</ele>
        <time>2011-12-04T13:28:38Z</time>
      </trkpt>
      <trkpt lat="43.2239" lon="6.24086">
        <ele>215.47</ele>
        <time>2011-12-04T13:29:13Z</time>
      </trkpt>
      <trkpt lat="43.22412" lon="6.24094">
        <ele>208.74</ele>
        <time>2011-12-04T13:29:51Z</time>
      </trkpt>
      <trkpt lat="43.2244" lon="6.24089">
        <ele>202.98</ele>
        <time>2011-12-04T13:30:31Z</time>
      </trkpt>
      <trkpt lat="43.22459" lon="6.24079">
        <ele>198.17</ele>
        <time>2011-12-04T13:31:11Z</time>
      </trkpt>
      <trkpt lat="43.22485" lon="6.24089">
        <ele>193.84</ele>
        <time>2011-12-04T13:31:43Z</time>
      </trkpt>
      <trkpt lat="43.22507" lon="6.24099">
        <ele>189.04</ele>
        <time>2011-12-04T13:32:17Z</time>
      </trkpt>
      <trkpt lat="43.22531" lon="6.24112">
        <ele>183.75</ele>
        <time>2011-12-04T13:32:51Z</time>
      </trkpt>
      <trkpt lat="43.22554" lon="6.24127">
        <ele>177.98</ele>
        <time>2011-12-04T13:33:30Z</time>
      </trkpt>
      <trkpt lat="43.22577" lon="6.2414">
        <ele>171.73</ele>
        <time>2011-12-04T13:34:09Z</time>
      </trkpt>
      <trkpt lat="43.22607" lon="6.24145">
        <ele>164.52</ele>
        <time>2011-12-04T13:35:06Z</time>
      </trkpt>
      <trkpt lat="43.22641" lon="6.24142">
        <ele>157.79</ele>
        <time>2011-12-04T13:35:51Z</time>
      </trkpt>
      <trkpt lat="43.22675" lon="6.24138">
        <ele>152.99</ele>
        <time>2011-12-04T13:36:32Z</time>
      </trkpt>
      <trkpt lat="43.22707" lon="6.24137">
        <ele>147.7</ele>
        <time>2011-12-04T13:37:15Z</time>
      </trkpt>
      <trkpt lat="43.22731" lon="6.24135">
        <ele>141.45</ele>
        <time>2011-12-04T13:37:54Z</time>
      </trkpt>
      <trkpt lat="43.22756" lon="6.24125">
        <ele>135.2</ele>
        <time>2011-12-04T13:38:31Z</time>
      </trkpt>
      <trkpt lat="43.22779" lon="6.24112">
        <ele>129.92</ele>
        <time>2011-12-04T13:39:06Z</time>
      </trkpt>
      <trkpt lat="43.22801" lon="6.24099">
        <ele>125.11</ele>
        <time>2011-12-04T13:39:36Z</time>
      </trkpt>
      <trkpt lat="43.22823" lon="6.24084">
        <ele>121.74</ele>
        <time>2011-12-04T13:40:11Z</time>
      </trkpt>
      <trkpt lat="43.22859" lon="6.24068">
        <ele>114.05</ele>
        <time>2011-12-04T13:41:00Z</time>
      </trkpt>
      <trkpt lat="43.22868" lon="6.24057">
        <ele>113.57</ele>
        <time>2011-12-04T13:44:51Z</time>
      </trkpt>
      <trkpt lat="43.22849" lon="6.24041">
        <ele>115.98</ele>
        <time>2011-12-04T13:45:41Z</time>
      </trkpt>
      <trkpt lat="43.22835" lon="6.24029">
        <ele>116.94</ele>
        <time>2011-12-04T13:46:05Z</time>
      </trkpt>
      <trkpt lat="43.22819" lon="6.2402">
        <ele>117.42</ele>
        <time>2011-12-04T13:46:37Z</time>
      </trkpt>
      <trkpt lat="43.22805" lon="6.23998">
        <ele>118.38</ele>
        <time>2011-12-04T13:47:03Z</time>
      </trkpt>
      <trkpt lat="43.22792" lon="6.23973">
        <ele>118.38</ele>
        <time>2011-12-04T13:47:26Z</time>
      </trkpt>
      <trkpt lat="43.22783" lon="6.23949">
        <ele>118.86</ele>
        <time>2011-12-04T13:47:52Z</time>
      </trkpt>
      <trkpt lat="43.22769" lon="6.23924">
        <ele>118.86</ele>
        <time>2011-12-04T13:48:21Z</time>
      </trkpt>
      <trkpt lat="43.22759" lon="6.239">
        <ele>119.82</ele>
        <time>2011-12-04T13:48:47Z</time>
      </trkpt>
      <trkpt lat="43.22749" lon="6.23876">
        <ele>120.3</ele>
        <time>2011-12-04T13:49:11Z</time>
      </trkpt>
      <trkpt lat="43.22739" lon="6.23852">
        <ele>120.3</ele>
        <time>2011-12-04T13:49:35Z</time>
      </trkpt>
      <trkpt lat="43.2273" lon="6.23818">
        <ele>119.82</ele>
        <time>2011-12-04T13:49:59Z</time>
      </trkpt>
      <trkpt lat="43.22719" lon="6.23793">
        <ele>119.34</ele>
        <time>2011-12-04T13:50:20Z</time>
      </trkpt>
      <trkpt lat="43.22715" lon="6.23767">
        <ele>118.38</ele>
        <time>2011-12-04T13:50:45Z</time>
      </trkpt>
      <trkpt lat="43.22705" lon="6.23737">
        <ele>118.38</ele>
        <time>2011-12-04T13:51:09Z</time>
      </trkpt>
      <trkpt lat="43.22702" lon="6.23703">
        <ele>117.9</ele>
        <time>2011-12-04T13:51:33Z</time>
      </trkpt>
      <trkpt lat="43.227" lon="6.23691">
        <ele>116.94</ele>
        <time>2011-12-04T13:53:04Z</time>
      </trkpt>
      <trkpt lat="43.2269" lon="6.23656">
        <ele>115.98</ele>
        <time>2011-12-04T13:53:34Z</time>
      </trkpt>
      <trkpt lat="43.22677" lon="6.23636">
        <ele>114.05</ele>
        <time>2011-12-04T13:54:10Z</time>
      </trkpt>
      <trkpt lat="43.22671" lon="6.23624">
        <ele>111.17</ele>
        <time>2011-12-04T13:54:45Z</time>
      </trkpt>
      <trkpt lat="43.22682" lon="6.2361">
        <ele>107.81</ele>
        <time>2011-12-04T13:55:18Z</time>
      </trkpt>
      <trkpt lat="43.2271" lon="6.23594">
        <ele>110.21</ele>
        <time>2011-12-04T13:55:59Z</time>
      </trkpt>
      <trkpt lat="43.22728" lon="6.23582">
        <ele>112.13</ele>
        <time>2011-12-04T13:56:27Z</time>
      </trkpt>
      <trkpt lat="43.22752" lon="6.23566">
        <ele>112.13</ele>
        <time>2011-12-04T13:56:54Z</time>
      </trkpt>
      <trkpt lat="43.22772" lon="6.2355">
        <ele>111.65</ele>
        <time>2011-12-04T13:57:18Z</time>
      </trkpt>
      <trkpt lat="43.22789" lon="6.23538">
        <ele>109.73</ele>
        <time>2011-12-04T13:57:39Z</time>
      </trkpt>
      <trkpt lat="43.22807" lon="6.23526">
        <ele>108.29</ele>
        <time>2011-12-04T13:58:01Z</time>
      </trkpt>
      <trkpt lat="43.22824" lon="6.23513">
        <ele>106.84</ele>
        <time>2011-12-04T13:58:21Z</time>
      </trkpt>
      <trkpt lat="43.2284" lon="6.23501">
        <ele>104.44</ele>
        <time>2011-12-04T13:58:44Z</time>
      </trkpt>
      <trkpt lat="43.22858" lon="6.23488">
        <ele>102.52</ele>
        <time>2011-12-04T13:59:08Z</time>
      </trkpt>
      <trkpt lat="43.22879" lon="6.23479">
        <ele>102.04</ele>
        <time>2011-12-04T13:59:37Z</time>
      </trkpt>
      <trkpt lat="43.229" lon="6.23468">
        <ele>98.19</ele>
        <time>2011-12-04T14:00:04Z</time>
      </trkpt>
      <trkpt lat="43.22905" lon="6.23438">
        <ele>97.71</ele>
        <time>2011-12-04T14:00:29Z</time>
      </trkpt>
      <trkpt lat="43.22911" lon="6.23407">
        <ele>97.71</ele>
        <time>2011-12-04T14:01:01Z</time>
      </trkpt>
      <trkpt lat="43.22918" lon="6.23371">
        <ele>99.63</ele>
        <time>2011-12-04T14:01:38Z</time>
      </trkpt>
      <trkpt lat="43.22928" lon="6.23339">
        <ele>102.04</ele>
        <time>2011-12-04T14:02:05Z</time>
      </trkpt>
      <trkpt lat="43.22949" lon="6.23315">
        <ele>103.48</ele>
        <time>2011-12-04T14:02:33Z</time>
      </trkpt>
      <trkpt lat="43.2297" lon="6.23296">
        <ele>103.48</ele>
        <time>2011-12-04T14:02:57Z</time>
      </trkpt>
      <trkpt lat="43.23" lon="6.23302">
        <ele>102.04</ele>
        <time>2011-12-04T14:03:36Z</time>
      </trkpt>
      <trkpt lat="43.23034" lon="6.23299">
        <ele>98.67</ele>
        <time>2011-12-04T14:04:12Z</time>
      </trkpt>
      <trkpt lat="43.23059" lon="6.23283">
        <ele>97.71</ele>
        <time>2011-12-04T14:04:38Z</time>
      </trkpt>
      <trkpt lat="43.23074" lon="6.2326">
        <ele>97.23</ele>
        <time>2011-12-04T14:05:03Z</time>
      </trkpt>
      <trkpt lat="43.23085" lon="6.23234">
        <ele>96.27</ele>
        <time>2011-12-04T14:05:28Z</time>
      </trkpt>
      <trkpt lat="43.23099" lon="6.23208">
        <ele>96.27</ele>
        <time>2011-12-04T14:05:49Z</time>
      </trkpt>
      <trkpt lat="43.2311" lon="6.23184">
        <ele>95.31</ele>
        <time>2011-12-04T14:06:10Z</time>
      </trkpt>
      <trkpt lat="43.23123" lon="6.2316">
        <ele>95.31</ele>
        <time>2011-12-04T14:06:32Z</time>
      </trkpt>
      <trkpt lat="43.23136" lon="6.23138">
        <ele>95.31</ele>
        <time>2011-12-04T14:06:53Z</time>
      </trkpt>
      <trkpt lat="43.23148" lon="6.23115">
        <ele>94.83</ele>
        <time>2011-12-04T14:07:14Z</time>
      </trkpt>
      <trkpt lat="43.23162" lon="6.23091">
        <ele>94.35</ele>
        <time>2011-12-04T14:07:36Z</time>
      </trkpt>
      <trkpt lat="43.23173" lon="6.23067">
        <ele>94.35</ele>
        <time>2011-12-04T14:07:58Z</time>
      </trkpt>
      <trkpt lat="43.23184" lon="6.23041">
        <ele>95.31</ele>
        <time>2011-12-04T14:08:21Z</time>
      </trkpt>
      <trkpt lat="43.23197" lon="6.2302">
        <ele>96.75</ele>
        <time>2011-12-04T14:08:42Z</time>
      </trkpt>
      <trkpt lat="43.23214" lon="6.23006">
        <ele>95.79</ele>
        <time>2011-12-04T14:09:03Z</time>
      </trkpt>
      <trkpt lat="43.23227" lon="6.22988">
        <ele>94.35</ele>
        <time>2011-12-04T14:09:22Z</time>
      </trkpt>
      <trkpt lat="43.23241" lon="6.22969">
        <ele>93.39</ele>
        <time>2011-12-04T14:09:42Z</time>
      </trkpt>
      <trkpt lat="43.23254" lon="6.22948">
        <ele>92.9</ele>
        <time>2011-12-04T14:10:04Z</time>
      </trkpt>
      <trkpt lat="43.23267" lon="6.22926">
        <ele>92.42</ele>
        <time>2011-12-04T14:10:30Z</time>
      </trkpt>
      <trkpt lat="43.23285" lon="6.22904">
        <ele>93.39</ele>
        <time>2011-12-04T14:10:54Z</time>
      </trkpt>
      <trkpt lat="43.23304" lon="6.22885">
        <ele>92.9</ele>
        <time>2011-12-04T14:11:20Z</time>
      </trkpt>
      <trkpt lat="43.23324" lon="6.22864">
        <ele>92.9</ele>
        <time>2011-12-04T14:11:47Z</time>
      </trkpt>
      <trkpt lat="43.23341" lon="6.22844">
        <ele>94.83</ele>
        <time>2011-12-04T14:12:12Z</time>
      </trkpt>
      <trkpt lat="43.23348" lon="6.22818">
        <ele>95.79</ele>
        <time>2011-12-04T14:12:33Z</time>
      </trkpt>
      <trkpt lat="43.23348" lon="6.22788">
        <ele>93.87</ele>
        <time>2011-12-04T14:12:59Z</time>
      </trkpt>
      <trkpt lat="43.23347" lon="6.22751">
        <ele>93.39</ele>
        <time>2011-12-04T14:13:28Z</time>
      </trkpt>
      <trkpt lat="43.23349" lon="6.22716">
        <ele>92.42</ele>
        <time>2011-12-04T14:14:01Z</time>
      </trkpt>
      <trkpt lat="43.23346" lon="6.22686">
        <ele>90.5</ele>
        <time>2011-12-04T14:14:40Z</time>
      </trkpt>
      <trkpt lat="43.23333" lon="6.2266">
        <ele>90.5</ele>
        <time>2011-12-04T14:15:33Z</time>
      </trkpt>
      <trkpt lat="43.2332" lon="6.22629">
        <ele>90.5</ele>
        <time>2011-12-04T14:16:06Z</time>
      </trkpt>
      <trkpt lat="43.23312" lon="6.22599">
        <ele>90.5</ele>
        <time>2011-12-04T14:16:39Z</time>
      </trkpt>
      <trkpt lat="43.23307" lon="6.22569">
        <ele>90.98</ele>
        <time>2011-12-04T14:17:06Z</time>
      </trkpt>
      <trkpt lat="43.23322" lon="6.22546">
        <ele>88.58</ele>
        <time>2011-12-04T14:17:41Z</time>
      </trkpt>
      <trkpt lat="43.23318" lon="6.22534">
        <ele>88.1</ele>
        <time>2011-12-04T14:18:29Z</time>
      </trkpt>
      <trkpt lat="43.23301" lon="6.22508">
        <ele>87.62</ele>
        <time>2011-12-04T14:18:58Z</time>
      </trkpt>
      <trkpt lat="43.23286" lon="6.22479">
        <ele>88.1</ele>
        <time>2011-12-04T14:19:24Z</time>
      </trkpt>
      <trkpt lat="43.23283" lon="6.22448">
        <ele>88.1</ele>
        <time>2011-12-04T14:19:50Z</time>
      </trkpt>
      <trkpt lat="43.23287" lon="6.22415">
        <ele>90.5</ele>
        <time>2011-12-04T14:20:19Z</time>
      </trkpt>
      <trkpt lat="43.23299" lon="6.22396">
        <ele>92.42</ele>
        <time>2011-12-04T14:21:45Z</time>
      </trkpt>
      <trkpt lat="43.23321" lon="6.22376">
        <ele>93.39</ele>
        <time>2011-12-04T14:22:16Z</time>
      </trkpt>
      <trkpt lat="43.2334" lon="6.22356">
        <ele>93.39</ele>
        <time>2011-12-04T14:22:40Z</time>
      </trkpt>
      <trkpt lat="43.23351" lon="6.22339">
        <ele>94.83</ele>
        <time>2011-12-04T14:23:28Z</time>
      </trkpt>
      <trkpt lat="43.23359" lon="6.22309">
        <ele>92.9</ele>
        <time>2011-12-04T14:24:06Z</time>
      </trkpt>
      <trkpt lat="43.23377" lon="6.22295">
        <ele>89.54</ele>
        <time>2011-12-04T14:24:34Z</time>
      </trkpt>
      <trkpt lat="43.23397" lon="6.22276">
        <ele>88.1</ele>
        <time>2011-12-04T14:25:07Z</time>
      </trkpt>
      <trkpt lat="43.23412" lon="6.22254">
        <ele>86.66</ele>
        <time>2011-12-04T14:25:34Z</time>
      </trkpt>
      <trkpt lat="43.2342" lon="6.22224">
        <ele>86.66</ele>
        <time>2011-12-04T14:26:02Z</time>
      </trkpt>
      <trkpt lat="43.23433" lon="6.22198">
        <ele>86.66</ele>
        <time>2011-12-04T14:26:31Z</time>
      </trkpt>
      <trkpt lat="43.23446" lon="6.22169">
        <ele>86.66</ele>
        <time>2011-12-04T14:27:04Z</time>
      </trkpt>
      <trkpt lat="43.23462" lon="6.22144">
        <ele>86.18</ele>
        <time>2011-12-04T14:27:32Z</time>
      </trkpt>
      <trkpt lat="43.23475" lon="6.22114">
        <ele>85.69</ele>
        <time>2011-12-04T14:27:57Z</time>
      </trkpt>
      <trkpt lat="43.23485" lon="6.22083">
        <ele>86.18</ele>
        <time>2011-12-04T14:28:26Z</time>
      </trkpt>
      <trkpt lat="43.23498" lon="6.22055">
        <ele>86.18</ele>
        <time>2011-12-04T14:28:57Z</time>
      </trkpt>
      <trkpt lat="43.23506" lon="6.22036">
        <ele>85.69</ele>
        <time>2011-12-04T14:30:04Z</time>
      </trkpt>
      <trkpt lat="43.23519" lon="6.21997">
        <ele>85.21</ele>
        <time>2011-12-04T14:30:43Z</time>
      </trkpt>
      <trkpt lat="43.23541" lon="6.21955">
        <ele>85.21</ele>
        <time>2011-12-04T14:31:09Z</time>
      </trkpt>
      <trkpt lat="43.23555" lon="6.2194">
        <ele>84.25</ele>
        <time>2011-12-04T14:32:15Z</time>
      </trkpt>
      <trkpt lat="43.2358" lon="6.2191">
        <ele>84.25</ele>
        <time>2011-12-04T14:32:49Z</time>
      </trkpt>
      <trkpt lat="43.23596" lon="6.21887">
        <ele>84.73</ele>
        <time>2011-12-04T14:33:40Z</time>
      </trkpt>
      <trkpt lat="43.23604" lon="6.21869">
        <ele>85.69</ele>
        <time>2011-12-04T14:36:57Z</time>
      </trkpt>
      <trkpt lat="43.23613" lon="6.21834">
        <ele>84.73</ele>
        <time>2011-12-04T14:37:23Z</time>
      </trkpt>
      <trkpt lat="43.23617" lon="6.21802">
        <ele>84.25</ele>
        <time>2011-12-04T14:37:49Z</time>
      </trkpt>
      <trkpt lat="43.23618" lon="6.21777">
        <ele>83.77</ele>
        <time>2011-12-04T14:38:18Z</time>
      </trkpt>
      <trkpt lat="43.23628" lon="6.21794">
        <ele>84.25</ele>
        <time>2011-12-04T14:38:49Z</time>
      </trkpt>
      <trkpt lat="43.23641" lon="6.21818">
        <ele>84.25</ele>
        <time>2011-12-04T14:39:16Z</time>
      </trkpt>
      <trkpt lat="43.23651" lon="6.21838">
        <ele>84.25</ele>
        <time>2011-12-04T14:39:53Z</time>
      </trkpt>
      <trkpt lat="43.23657" lon="6.21882">
        <ele>84.73</ele>
        <time>2011-12-04T14:40:29Z</time>
      </trkpt>
      <trkpt lat="43.23657" lon="6.21909">
        <ele>84.25</ele>
        <time>2011-12-04T14:40:48Z</time>
      </trkpt>
      <trkpt lat="43.23658" lon="6.21937">
        <ele>85.21</ele>
        <time>2011-12-04T14:41:05Z</time>
      </trkpt>
      <trkpt lat="43.23656" lon="6.2197">
        <ele>85.21</ele>
        <time>2011-12-04T14:41:24Z</time>
      </trkpt>
      <trkpt lat="43.23647" lon="6.21994">
        <ele>87.14</ele>
        <time>2011-12-04T14:41:48Z</time>
      </trkpt>
      <trkpt lat="43.23637" lon="6.22022">
        <ele>87.62</ele>
        <time>2011-12-04T14:42:14Z</time>
      </trkpt>
      <trkpt lat="43.23627" lon="6.22048">
        <ele>87.14</ele>
        <time>2011-12-04T14:42:37Z</time>
      </trkpt>
      <trkpt lat="43.23614" lon="6.22071">
        <ele>87.62</ele>
        <time>2011-12-04T14:43:02Z</time>
      </trkpt>
      <trkpt lat="43.23603" lon="6.221">
        <ele>87.62</ele>
        <time>2011-12-04T14:43:29Z</time>
      </trkpt>
      <trkpt lat="43.23596" lon="6.22128">
        <ele>89.06</ele>
        <time>2011-12-04T14:43:55Z</time>
      </trkpt>
      <trkpt lat="43.23585" lon="6.22159">
        <ele>89.54</ele>
        <time>2011-12-04T14:44:19Z</time>
      </trkpt>
      <trkpt lat="43.23577" lon="6.22191">
        <ele>89.54</ele>
        <time>2011-12-04T14:44:46Z</time>
      </trkpt>
      <trkpt lat="43.2357" lon="6.2222">
        <ele>90.5</ele>
        <time>2011-12-04T14:45:14Z</time>
      </trkpt>
      <trkpt lat="43.23561" lon="6.22251">
        <ele>90.98</ele>
        <time>2011-12-04T14:45:37Z</time>
      </trkpt>
      <trkpt lat="43.23554" lon="6.22278">
        <ele>90.98</ele>
        <time>2011-12-04T14:45:59Z</time>
      </trkpt>
      <trkpt lat="43.23547" lon="6.22308">
        <ele>90.98</ele>
        <time>2011-12-04T14:46:20Z</time>
      </trkpt>
      <trkpt lat="43.23541" lon="6.22336">
        <ele>90.98</ele>
        <time>2011-12-04T14:46:44Z</time>
      </trkpt>
      <trkpt lat="43.23537" lon="6.22363">
        <ele>90.02</ele>
        <time>2011-12-04T14:47:06Z</time>
      </trkpt>
      <trkpt lat="43.23531" lon="6.22395">
        <ele>89.54</ele>
        <time>2011-12-04T14:47:31Z</time>
      </trkpt>
      <trkpt lat="43.2354" lon="6.22415">
        <ele>89.54</ele>
        <time>2011-12-04T14:48:11Z</time>
      </trkpt>
    </trkseg>
  </trk>
</gpx>